createdAt,value
2016-03-02T00:00:41.121Z,4.17
2016-03-02T00:01:41.124Z,4.2
2016-03-02T00:02:41.112Z,4.26
2016-03-02T00:03:41.114Z,4.13
2016-03-02T00:04:41.101Z,4.19
2016-03-02T00:05:41.120Z,4.14
2016-03-02T00:06:41.107Z,4.17
2016-03-02T00:07:41.092Z,4.14
2016-03-02T00:08:41.094Z,4.16
2016-03-02T00:09:41.097Z,4.23
2016-03-02T00:10:41.083Z,4.24
2016-03-02T00:11:41.086Z,4.28
2016-03-02T00:12:41.072Z,4.23
2016-03-02T00:13:41.076Z,4.28
2016-03-02T00:14:41.063Z,4.31
2016-03-02T00:15:53.803Z,4.26
2016-03-02T00:16:41.053Z,4.3
2016-03-02T00:17:41.055Z,4.26
2016-03-02T00:18:41.058Z,4.32
2016-03-02T00:19:41.045Z,4.24
2016-03-02T00:20:41.033Z,4.32
2016-03-02T00:21:41.035Z,4.32
2016-03-02T00:22:41.068Z,4.32
2016-03-02T00:23:41.025Z,4.38
2016-03-02T00:24:53.780Z,4.32
2016-03-02T00:25:41.030Z,4.42
2016-03-02T00:26:40.877Z,4.41
2016-03-02T00:27:41.020Z,4.4
2016-03-02T00:28:41.023Z,4.42
2016-03-02T00:29:41.025Z,4.5
2016-03-02T00:30:41.029Z,4.45
2016-03-02T00:31:41.015Z,4.5
2016-03-02T00:32:53.739Z,4.5
2016-03-02T00:33:41.036Z,4.53
2016-03-02T00:34:40.992Z,4.48
2016-03-02T00:35:40.995Z,4.48
2016-03-02T00:36:41.013Z,4.49
2016-03-02T00:37:41.016Z,4.52
2016-03-02T00:38:40.987Z,4.48
2016-03-02T00:39:41.005Z,4.52
2016-03-02T00:40:40.977Z,4.5
2016-03-02T00:41:40.964Z,4.53
2016-03-02T00:42:40.967Z,4.58
2016-03-02T00:43:40.969Z,4.48
2016-03-02T00:44:40.956Z,4.58
2016-03-02T00:45:40.958Z,4.66
2016-03-02T00:46:40.961Z,4.63
2016-03-02T00:47:40.964Z,4.6
2016-03-02T00:48:40.983Z,4.66
2016-03-02T00:49:40.954Z,4.62
2016-03-02T00:50:40.957Z,4.62
2016-03-02T00:51:40.928Z,4.63
2016-03-02T00:52:40.930Z,4.67
2016-03-02T00:53:40.933Z,4.67
2016-03-02T00:54:40.935Z,4.73
2016-03-02T00:55:40.924Z,4.7
2016-03-02T00:56:40.941Z,4.6
2016-03-02T00:57:40.913Z,4.71
2016-03-02T00:58:40.932Z,4.7
2016-03-02T00:59:40.918Z,4.78
2016-03-02T01:00:40.921Z,4.82
2016-03-02T01:01:40.924Z,4.77
2016-03-02T01:02:40.911Z,4.7
2016-03-02T01:03:53.634Z,4.8
2016-03-02T01:04:40.915Z,4.89
2016-03-02T01:05:40.904Z,4.82
2016-03-02T01:06:40.906Z,4.86
2016-03-02T01:07:40.893Z,4.84
2016-03-02T01:08:40.880Z,4.82
2016-03-02T01:09:40.883Z,4.87
2016-03-02T01:10:40.886Z,4.9
2016-03-02T01:11:40.872Z,4.94
2016-03-02T01:12:40.860Z,4.9
2016-03-02T01:13:40.862Z,4.9
2016-03-02T01:14:40.864Z,4.92
2016-03-02T01:15:40.867Z,4.93
2016-03-02T01:16:40.870Z,4.99
2016-03-02T01:17:40.858Z,5
2016-03-02T01:18:53.597Z,5.02
2016-03-02T01:19:40.847Z,5.04
2016-03-02T01:20:41.006Z,4.97
2016-03-02T01:21:40.852Z,5.02
2016-03-02T01:22:40.855Z,5.02
2016-03-02T01:23:40.858Z,5
2016-03-02T01:24:40.860Z,5.05
2016-03-02T01:25:40.832Z,5
2016-03-02T01:26:40.819Z,5.07
2016-03-02T01:27:40.821Z,5.08
2016-03-02T01:28:40.824Z,5
2016-03-02T01:29:40.812Z,5.08
2016-03-02T01:30:40.815Z,5.1
2016-03-02T01:31:40.832Z,5.11
2016-03-02T01:32:40.820Z,5.14
2016-03-02T01:33:40.807Z,5
2016-03-02T01:34:40.793Z,5.1
2016-03-02T01:35:40.812Z,5.04
2016-03-02T01:36:53.552Z,5.12
2016-03-02T01:37:40.787Z,5.12
2016-03-02T01:38:40.804Z,5.2
2016-03-02T01:39:40.776Z,5.1
2016-03-02T01:40:40.779Z,5.08
2016-03-02T01:41:40.765Z,5.18
2016-03-02T01:42:40.768Z,5.14
2016-03-02T01:43:40.771Z,5.12
2016-03-02T01:44:40.773Z,5.14
2016-03-02T01:45:40.776Z,5.12
2016-03-02T01:46:40.747Z,5.17
2016-03-02T01:47:40.782Z,5.17
2016-03-02T01:48:40.753Z,5.14
2016-03-02T01:49:40.741Z,5.15
2016-03-02T01:50:40.744Z,5.15
2016-03-02T01:51:40.746Z,5.18
2016-03-02T01:52:40.763Z,5.15
2016-03-02T01:53:40.752Z,5.15
2016-03-02T01:54:40.722Z,5.18
2016-03-02T01:55:40.725Z,5.17
2016-03-02T01:56:40.727Z,5.14
2016-03-02T01:57:40.730Z,5.12
2016-03-02T01:58:40.733Z,5.12
2016-03-02T01:59:40.735Z,5.11
2016-03-02T02:00:40.724Z,5.14
2016-03-02T02:01:40.741Z,5.12
2016-03-02T02:02:40.712Z,5.11
2016-03-02T02:03:40.731Z,5.15
2016-03-02T02:04:40.718Z,5.08
2016-03-02T02:05:40.710Z,5.11
2016-03-02T02:06:40.717Z,5.02
2016-03-02T02:07:40.689Z,5.15
2016-03-02T02:08:40.708Z,5.08
2016-03-02T02:09:40.694Z,5.1
2016-03-02T02:10:40.697Z,5.14
2016-03-02T02:11:40.669Z,5.11
2016-03-02T02:12:40.671Z,5.14
2016-03-02T02:13:40.689Z,5.1
2016-03-02T02:14:40.677Z,5.21
2016-03-02T02:15:40.680Z,5.11
2016-03-02T02:16:40.666Z,5.12
2016-03-02T02:17:40.685Z,5.17
2016-03-02T02:18:40.656Z,5.08
2016-03-02T02:19:40.674Z,5.2
2016-03-02T02:20:40.661Z,5.12
2016-03-02T02:21:40.664Z,5.15
2016-03-02T02:22:40.652Z,5.11
2016-03-02T02:23:40.669Z,5.12
2016-03-02T02:24:40.641Z,5.1
2016-03-02T02:25:40.660Z,5.11
2016-03-02T02:26:40.646Z,5.14
2016-03-02T02:27:40.649Z,5.2
2016-03-02T02:28:53.373Z,5.12
2016-03-02T02:29:40.467Z,5.18
2016-03-02T02:30:40.642Z,5.15
2016-03-02T02:31:40.628Z,5.17
2016-03-02T02:32:40.648Z,5.23
2016-03-02T02:33:40.618Z,5.23
2016-03-02T02:34:40.621Z,5.29
2016-03-02T02:35:40.624Z,5.33
2016-03-02T02:36:40.626Z,5.29
2016-03-02T02:37:40.613Z,5.3
2016-03-02T02:38:40.617Z,5.35
2016-03-02T02:39:53.340Z,5.32
2016-03-02T02:40:53.327Z,5.28
2016-03-02T02:41:40.592Z,5.29
2016-03-02T02:42:40.595Z,5.38
2016-03-02T02:43:40.583Z,5.33
2016-03-02T02:44:40.585Z,5.39
2016-03-02T02:45:40.589Z,5.38
2016-03-02T02:46:40.591Z,5.43
2016-03-02T02:47:40.593Z,5.41
2016-03-02T02:48:40.580Z,5.43
2016-03-02T02:49:40.568Z,5.36
2016-03-02T02:50:40.571Z,5.41
2016-03-02T02:51:40.588Z,5.38
2016-03-02T02:52:40.576Z,5.38
2016-03-02T02:53:40.579Z,5.5
2016-03-02T02:54:40.565Z,5.59
2016-03-02T02:55:40.569Z,5.53
2016-03-02T02:56:40.540Z,5.51
2016-03-02T02:57:40.543Z,5.48
2016-03-02T02:58:40.545Z,5.57
2016-03-02T02:59:40.548Z,5.54
2016-03-02T03:00:53.271Z,5.54
2016-03-02T03:01:40.537Z,5.54
2016-03-02T03:02:40.540Z,5.62
2016-03-02T03:03:40.543Z,5.57
2016-03-02T03:04:40.545Z,5.5
2016-03-02T03:05:53.254Z,5.56
2016-03-02T03:06:40.520Z,5.51
2016-03-02T03:07:40.507Z,5.47
2016-03-02T03:08:40.540Z,5.62
2016-03-02T03:09:40.512Z,5.53
2016-03-02T03:10:40.531Z,5.57
2016-03-02T03:11:40.502Z,5.5
2016-03-02T03:12:40.488Z,5.61
2016-03-02T03:13:40.508Z,5.48
2016-03-02T03:14:40.510Z,5.53
2016-03-02T03:15:40.528Z,5.53
2016-03-02T03:16:40.500Z,5.57
2016-03-02T03:17:40.486Z,5.61
2016-03-02T03:18:40.505Z,5.59
2016-03-02T03:19:40.491Z,5.53
2016-03-02T03:20:40.464Z,5.53
2016-03-02T03:21:40.482Z,5.65
2016-03-02T03:22:40.468Z,5.62
2016-03-02T03:23:40.471Z,5.61
2016-03-02T03:24:40.458Z,5.64
2016-03-02T03:25:40.477Z,5.61
2016-03-02T03:26:40.449Z,5.57
2016-03-02T03:27:40.467Z,5.64
2016-03-02T03:28:40.438Z,5.57
2016-03-02T03:29:40.456Z,5.64
2016-03-02T03:30:53.196Z,5.66
2016-03-02T03:31:40.446Z,5.66
2016-03-02T03:32:40.434Z,5.69
2016-03-02T03:33:40.451Z,5.69
2016-03-02T03:34:40.423Z,5.68
2016-03-02T03:35:40.426Z,5.71
2016-03-02T03:36:40.428Z,5.71
2016-03-02T03:37:40.416Z,5.79
2016-03-02T03:38:40.418Z,5.79
2016-03-02T03:39:40.405Z,5.83
2016-03-02T03:40:40.408Z,5.82
2016-03-02T03:41:40.411Z,5.76
2016-03-02T03:42:40.413Z,5.79
2016-03-02T03:43:40.416Z,5.84
2016-03-02T03:44:40.387Z,5.82
2016-03-02T03:45:40.422Z,5.79
2016-03-02T03:46:40.392Z,5.86
2016-03-02T03:47:40.395Z,5.84
2016-03-02T03:48:40.383Z,5.87
2016-03-02T03:49:40.385Z,5.89
2016-03-02T03:50:40.403Z,5.83
2016-03-02T03:51:40.390Z,5.86
2016-03-02T03:52:40.362Z,5.91
2016-03-02T03:53:40.365Z,5.86
2016-03-02T03:54:53.121Z,5.89
2016-03-02T03:55:40.355Z,5.97
2016-03-02T03:56:40.357Z,5.89
2016-03-02T03:57:40.376Z,5.91
2016-03-02T03:58:40.379Z,5.87
2016-03-02T03:59:40.381Z,5.97
2016-03-02T04:00:40.337Z,5.9
2016-03-02T04:01:40.340Z,5.89
2016-03-02T04:02:40.343Z,5.87
2016-03-02T04:03:40.345Z,5.91
2016-03-02T04:04:40.331Z,5.89
2016-03-02T04:05:40.366Z,5.9
2016-03-02T04:06:40.353Z,5.91
2016-03-02T04:07:40.340Z,5.89
2016-03-02T04:08:40.326Z,5.9
2016-03-02T04:09:40.314Z,5.94
2016-03-02T04:10:40.317Z,5.91
2016-03-02T04:11:40.320Z,5.99
2016-03-02T04:12:40.307Z,6.02
2016-03-02T04:13:40.309Z,6.02
2016-03-02T04:14:40.311Z,6.08
2016-03-02T04:15:40.299Z,6.02
2016-03-02T04:16:40.317Z,6.08
2016-03-02T04:17:40.304Z,6.08
2016-03-02T04:18:40.292Z,6.16
2016-03-02T04:19:40.294Z,6.09
2016-03-02T04:20:40.327Z,6.16
2016-03-02T04:21:40.299Z,6.11
2016-03-02T04:22:40.286Z,6.22
2016-03-02T04:23:40.274Z,6.14
2016-03-02T04:24:40.276Z,6.19
2016-03-02T04:25:40.279Z,6.16
2016-03-02T04:26:40.266Z,6.27
2016-03-02T04:27:40.268Z,6.28
2016-03-02T04:28:40.272Z,6.24
2016-03-02T04:29:40.258Z,6.26
2016-03-02T04:30:40.261Z,6.19
2016-03-02T04:31:40.248Z,6.14
2016-03-02T04:32:40.251Z,6.28
2016-03-02T04:33:53.006Z,6.22
2016-03-02T04:34:40.256Z,6.22
2016-03-02T04:35:40.259Z,6.28
2016-03-02T04:36:40.246Z,6.26
2016-03-02T04:37:52.970Z,6.2
2016-03-02T04:38:40.251Z,6.24
2016-03-02T04:39:40.254Z,6.2
2016-03-02T04:40:40.226Z,6.22
2016-03-02T04:41:40.228Z,6.16
2016-03-02T04:42:40.231Z,6.26
2016-03-02T04:43:40.296Z,6.24
2016-03-02T04:44:40.221Z,6.12
2016-03-02T04:45:40.223Z,6.17
2016-03-02T04:46:40.211Z,6.27
2016-03-02T04:47:40.213Z,6.2
2016-03-02T04:48:40.231Z,6.22
2016-03-02T04:49:40.219Z,6.26
2016-03-02T04:50:40.205Z,6.17
2016-03-02T04:51:40.224Z,6.16
2016-03-02T04:52:40.210Z,6.17
2016-03-02T04:53:40.214Z,6.22
2016-03-02T04:54:40.216Z,6.27
2016-03-02T04:55:40.202Z,6.2
2016-03-02T04:56:52.927Z,6.17
2016-03-02T04:57:40.208Z,6.12
2016-03-02T04:58:40.180Z,6.14
2016-03-02T04:59:40.199Z,6.05
2016-03-02T05:00:40.185Z,6.07
2016-03-02T05:01:40.188Z,6.01
2016-03-02T05:02:40.175Z,5.97
2016-03-02T05:03:40.194Z,6.05
2016-03-02T05:04:40.165Z,5.99
2016-03-02T05:05:40.184Z,5.99
2016-03-02T05:06:40.170Z,6.07
2016-03-02T05:07:40.173Z,6.01
2016-03-02T05:08:40.176Z,6.02
2016-03-02T05:09:40.162Z,6.01
2016-03-02T05:10:40.166Z,5.93
2016-03-02T05:11:40.153Z,5.98
2016-03-02T05:12:40.156Z,5.99
2016-03-02T05:13:40.174Z,5.97
2016-03-02T05:14:40.145Z,5.99
2016-03-02T05:15:40.164Z,5.94
2016-03-02T05:16:40.150Z,5.93
2016-03-02T05:17:40.169Z,5.87
2016-03-02T05:18:52.877Z,5.97
2016-03-02T05:19:40.158Z,5.93
2016-03-02T05:20:40.130Z,6.04
2016-03-02T05:21:40.133Z,5.91
2016-03-02T05:22:40.135Z,5.93
2016-03-02T05:23:40.138Z,5.89
2016-03-02T05:24:40.141Z,5.89
2016-03-02T05:25:39.972Z,5.89
2016-03-02T05:26:40.161Z,5.9
2016-03-02T05:27:40.133Z,5.98
2016-03-02T05:28:40.136Z,5.91
2016-03-02T05:29:40.154Z,5.89
2016-03-02T05:30:40.126Z,5.97
2016-03-02T05:31:40.113Z,5.89
2016-03-02T05:32:52.868Z,5.89
2016-03-02T05:33:40.118Z,5.93
2016-03-02T05:34:40.105Z,5.87
2016-03-02T05:35:40.108Z,5.93
2016-03-02T05:36:40.110Z,5.91
2016-03-02T05:37:40.097Z,5.97
2016-03-02T05:38:40.116Z,5.97
2016-03-02T05:39:40.118Z,6.01
2016-03-02T05:40:40.106Z,6.02
2016-03-02T05:41:52.845Z,5.98
2016-03-02T05:42:40.079Z,5.94
2016-03-02T05:43:40.082Z,5.99
2016-03-02T05:44:40.085Z,5.99
2016-03-02T05:45:40.072Z,6.02
2016-03-02T05:46:40.075Z,6.02
2016-03-02T05:47:40.077Z,6.05
2016-03-02T05:48:39.908Z,6.07
2016-03-02T05:49:40.067Z,6.01
2016-03-02T05:50:40.054Z,6.09
2016-03-02T05:51:40.058Z,6.11
2016-03-02T05:52:40.060Z,6.12
2016-03-02T05:53:40.063Z,6.14
2016-03-02T05:54:40.066Z,6.27
2016-03-02T05:55:40.068Z,6.26
2016-03-02T05:56:40.055Z,6.27
2016-03-02T05:57:40.057Z,6.26
2016-03-02T05:58:40.044Z,6.26
2016-03-02T05:59:40.047Z,6.39
2016-03-02T06:00:40.049Z,6.3
2016-03-02T06:01:40.053Z,6.31
2016-03-02T06:02:52.776Z,6.41
2016-03-02T06:03:40.026Z,6.31
2016-03-02T06:04:40.029Z,6.28
2016-03-02T06:05:40.032Z,6.41
2016-03-02T06:06:40.035Z,6.41
2016-03-02T06:07:40.037Z,6.41
2016-03-02T06:08:40.040Z,6.38
2016-03-02T06:09:40.027Z,6.35
2016-03-02T06:10:40.014Z,6.42
2016-03-02T06:11:40.018Z,6.42
2016-03-02T06:12:40.004Z,6.41
2016-03-02T06:13:52.759Z,6.36
2016-03-02T06:14:40.025Z,6.46
2016-03-02T06:15:40.043Z,6.52
2016-03-02T06:16:40.015Z,6.57
2016-03-02T06:17:40.002Z,6.49
2016-03-02T06:18:40.005Z,6.59
2016-03-02T06:19:40.008Z,6.54
2016-03-02T06:20:39.994Z,6.57
2016-03-02T06:21:40.013Z,6.66
2016-03-02T06:22:40.000Z,6.59
2016-03-02T06:23:39.986Z,6.64
2016-03-02T06:24:40.005Z,6.6
2016-03-02T06:25:39.992Z,6.6
2016-03-02T06:26:39.994Z,6.69
2016-03-02T06:27:39.997Z,6.69
2016-03-02T06:28:39.999Z,6.63
2016-03-02T06:29:40.003Z,6.62
2016-03-02T06:30:40.005Z,6.6
2016-03-02T06:31:39.993Z,6.69
2016-03-02T06:32:39.996Z,6.63
2016-03-02T06:33:39.966Z,6.72
2016-03-02T06:34:39.969Z,6.62
2016-03-02T06:35:39.972Z,6.69
2016-03-02T06:36:52.712Z,6.72
2016-03-02T06:37:39.962Z,6.67
2016-03-02T06:38:39.965Z,6.7
2016-03-02T06:39:39.968Z,6.69
2016-03-02T06:40:39.954Z,6.74
2016-03-02T06:41:39.973Z,6.7
2016-03-02T06:42:39.975Z,6.7
2016-03-02T06:43:39.963Z,6.72
2016-03-02T06:44:39.965Z,6.72
2016-03-02T06:45:39.967Z,6.78
2016-03-02T06:46:39.955Z,6.85
2016-03-02T06:47:39.958Z,6.82
2016-03-02T06:48:39.961Z,6.82
2016-03-02T06:49:39.964Z,6.85
2016-03-02T06:50:39.966Z,6.88
2016-03-02T06:51:39.952Z,6.92
2016-03-02T06:52:39.955Z,7.03
2016-03-02T06:53:39.942Z,6.99
2016-03-02T06:54:52.683Z,7
2016-03-02T06:55:39.948Z,7.05
2016-03-02T06:56:39.935Z,7.13
2016-03-02T06:57:39.938Z,7.11
2016-03-02T06:58:39.924Z,7.15
2016-03-02T06:59:39.928Z,7.11
2016-03-02T07:00:39.930Z,7.18
2016-03-02T07:01:39.917Z,7.18
2016-03-02T07:02:39.919Z,7.28
2016-03-02T07:03:39.923Z,7.28
2016-03-02T07:04:39.925Z,7.28
2016-03-02T07:05:39.927Z,7.39
2016-03-02T07:06:39.915Z,7.39
2016-03-02T07:07:39.918Z,7.36
2016-03-02T07:08:39.780Z,7.42
2016-03-02T07:09:39.939Z,7.47
2016-03-02T07:10:39.926Z,7.36
2016-03-02T07:11:39.929Z,7.4
2016-03-02T07:12:39.915Z,7.47
2016-03-02T07:13:46.185Z,7.57
2016-03-02T07:14:39.906Z,7.5
2016-03-02T07:15:39.923Z,7.48
2016-03-02T07:16:39.927Z,7.54
2016-03-02T07:17:39.929Z,7.69
2016-03-02T07:18:39.917Z,7.63
2016-03-02T07:19:39.934Z,7.6
2016-03-02T07:20:39.906Z,7.69
2016-03-02T07:21:39.909Z,7.7
2016-03-02T07:22:39.911Z,7.67
2016-03-02T07:23:39.914Z,7.72
2016-03-02T07:24:39.901Z,7.73
2016-03-02T07:25:52.654Z,7.76
2016-03-02T07:26:39.938Z,7.7
2016-03-02T07:27:39.910Z,7.73
2016-03-02T07:28:39.897Z,7.67
2016-03-02T07:29:39.900Z,7.77
2016-03-02T07:30:39.903Z,7.79
2016-03-02T07:31:39.905Z,7.88
2016-03-02T07:32:39.892Z,7.94
2016-03-02T07:33:39.910Z,7.94
2016-03-02T07:34:39.929Z,7.91
2016-03-02T07:35:39.901Z,7.94
2016-03-02T07:36:39.887Z,7.9
2016-03-02T07:37:39.906Z,7.9
2016-03-02T07:38:52.642Z,7.93
2016-03-02T07:39:52.645Z,7.93
2016-03-02T07:40:39.897Z,8
2016-03-02T07:41:39.885Z,8.05
2016-03-02T07:42:39.903Z,8.06
2016-03-02T07:43:39.905Z,8.08
2016-03-02T07:44:39.894Z,8
2016-03-02T07:45:39.896Z,8.12
2016-03-02T07:46:39.899Z,8.16
2016-03-02T07:47:39.901Z,8.15
2016-03-02T07:48:39.888Z,8.18
2016-03-02T07:49:39.907Z,8.16
2016-03-02T07:50:39.910Z,8.16
2016-03-02T07:51:52.631Z,8.19
2016-03-02T07:52:39.898Z,8.28
2016-03-02T07:53:39.886Z,8.19
2016-03-02T07:54:39.889Z,8.26
2016-03-02T07:55:39.906Z,8.24
2016-03-02T07:56:39.925Z,8.26
2016-03-02T07:57:39.912Z,8.19
2016-03-02T07:58:39.884Z,8.15
2016-03-02T07:59:39.886Z,8.08
2016-03-02T08:00:39.889Z,8.16
2016-03-02T08:01:39.892Z,8.06
2016-03-02T08:02:39.894Z,8.18
2016-03-02T08:03:39.897Z,8.16
2016-03-02T08:04:39.884Z,8.16
2016-03-02T08:05:39.887Z,8.16
2016-03-02T08:06:39.890Z,8.15
2016-03-02T08:07:39.892Z,8.15
2016-03-02T08:08:39.895Z,8.27
2016-03-02T08:09:39.898Z,8.23
2016-03-02T08:10:39.885Z,8.26
2016-03-02T08:11:39.888Z,8.24
2016-03-02T08:12:52.641Z,8.27
2016-03-02T08:13:39.894Z,8.31
2016-03-02T08:14:39.896Z,8.27
2016-03-02T08:15:39.898Z,8.44
2016-03-02T08:16:39.901Z,8.31
2016-03-02T08:17:39.888Z,8.41
2016-03-02T08:18:39.891Z,8.41
2016-03-02T08:19:39.910Z,8.37
2016-03-02T08:20:39.897Z,8.38
2016-03-02T08:21:39.883Z,8.27
2016-03-02T08:22:39.902Z,8.38
2016-03-02T08:23:39.904Z,8.34
2016-03-02T08:24:39.891Z,8.37
2016-03-02T08:25:39.893Z,8.38
2016-03-02T08:26:39.896Z,8.34
2016-03-02T08:27:39.899Z,8.37
2016-03-02T08:28:46.356Z,8.42
2016-03-02T08:29:39.890Z,8.42
2016-03-02T08:30:39.892Z,8.42
2016-03-02T08:31:39.895Z,8.37
2016-03-02T08:32:39.898Z,8.38
2016-03-02T08:33:39.900Z,8.37
2016-03-02T08:34:39.887Z,8.41
2016-03-02T08:35:39.889Z,8.38
2016-03-02T08:36:39.877Z,8.41
2016-03-02T08:37:39.885Z,8.41
2016-03-02T08:38:39.874Z,8.42
2016-03-02T08:39:39.846Z,8.44
2016-03-02T08:40:39.833Z,8.49
2016-03-02T08:41:52.539Z,8.46
2016-03-02T08:42:39.625Z,8.53
2016-03-02T08:43:39.793Z,8.52
2016-03-02T08:44:39.807Z,8.55
2016-03-02T08:45:39.788Z,8.49
2016-03-02T08:46:39.785Z,8.52
2016-03-02T08:47:39.801Z,8.53
2016-03-02T08:48:39.770Z,8.52
2016-03-02T08:49:39.770Z,8.63
2016-03-02T08:50:39.772Z,8.55
2016-03-02T08:51:39.772Z,8.51
2016-03-02T08:52:39.758Z,8.56
2016-03-02T08:53:39.760Z,8.6
2016-03-02T08:54:39.762Z,8.56
2016-03-02T08:55:39.764Z,8.55
2016-03-02T08:56:39.766Z,8.6
2016-03-02T08:57:39.768Z,8.6
2016-03-02T08:58:52.506Z,8.67
2016-03-02T08:59:39.774Z,8.67
2016-03-02T09:00:39.776Z,8.69
2016-03-02T09:01:39.763Z,8.63
2016-03-02T09:02:39.797Z,8.7
2016-03-02T09:03:39.768Z,8.69
2016-03-02T09:04:39.756Z,8.67
2016-03-02T09:05:39.759Z,8.71
2016-03-02T09:06:52.496Z,8.73
2016-03-02T09:07:39.765Z,8.66
2016-03-02T09:08:39.767Z,8.69
2016-03-02T09:09:39.754Z,8.84
2016-03-02T09:10:39.756Z,8.87
2016-03-02T09:11:52.493Z,8.88
2016-03-02T09:12:39.762Z,8.91
2016-03-02T09:13:39.764Z,8.89
2016-03-02T09:14:39.767Z,8.88
2016-03-02T09:15:39.770Z,8.88
2016-03-02T09:16:39.772Z,8.87
2016-03-02T09:17:39.776Z,8.94
2016-03-02T09:18:39.762Z,8.87
2016-03-02T09:19:39.781Z,9
2016-03-02T09:20:39.753Z,8.99
2016-03-02T09:21:39.817Z,8.99
2016-03-02T09:22:39.773Z,9.13
2016-03-02T09:23:39.760Z,9.14
2016-03-02T09:24:39.778Z,9.19
2016-03-02T09:25:39.781Z,9.14
2016-03-02T09:26:39.769Z,9.28
2016-03-02T09:27:39.771Z,9.26
2016-03-02T09:28:39.774Z,9.29
2016-03-02T09:29:39.777Z,9.22
2016-03-02T09:30:52.514Z,9.23
2016-03-02T09:31:39.766Z,9.14
2016-03-02T09:32:39.769Z,9.18
2016-03-02T09:33:39.771Z,9.18
2016-03-02T09:34:39.774Z,9.19
2016-03-02T09:35:39.777Z,9.19
2016-03-02T09:36:39.779Z,9.14
2016-03-02T09:37:39.783Z,9.18
2016-03-02T09:38:39.785Z,9.23
2016-03-02T09:39:39.804Z,9.16
2016-03-02T09:40:39.775Z,9.18
2016-03-02T09:41:39.793Z,9.13
2016-03-02T09:42:39.780Z,9.11
2016-03-02T09:43:52.517Z,9.13
2016-03-02T09:44:39.770Z,9.19
2016-03-02T09:45:39.772Z,9.14
2016-03-02T09:46:39.775Z,9.16
2016-03-02T09:47:39.793Z,9.23
2016-03-02T09:48:39.780Z,9.46
2016-03-02T09:49:39.798Z,9.48
2016-03-02T09:50:39.770Z,9.5
2016-03-02T09:51:39.804Z,9.74
2016-03-02T09:52:39.776Z,9.77
2016-03-02T09:53:52.513Z,9.92
2016-03-02T09:54:39.781Z,10.07
2016-03-02T09:55:39.783Z,10.13
2016-03-02T09:56:39.786Z,10.19
2016-03-02T09:57:39.788Z,10.28
2016-03-02T09:58:39.791Z,10.28
2016-03-02T09:59:52.529Z,10.31
2016-03-02T10:00:39.797Z,10.4
2016-03-02T10:01:39.799Z,10.33
2016-03-02T10:02:39.803Z,10.4
2016-03-02T10:03:39.805Z,10.26
2016-03-02T10:04:39.824Z,10.23
2016-03-02T10:05:52.716Z,10.22
2016-03-02T10:06:39.813Z,10.17
2016-03-02T10:07:39.816Z,10.2
2016-03-02T10:08:39.803Z,10.25
2016-03-02T10:09:39.838Z,10.16
2016-03-02T10:10:39.809Z,10.13
2016-03-02T10:11:52.546Z,10.23
2016-03-02T10:12:39.829Z,10.31
2016-03-02T10:13:39.832Z,10.38
2016-03-02T10:14:39.834Z,10.54
2016-03-02T10:15:39.822Z,10.53
2016-03-02T10:16:52.575Z,10.6
2016-03-02T10:17:39.827Z,10.59
2016-03-02T10:18:39.861Z,10.6
2016-03-02T10:19:39.833Z,10.74
2016-03-02T10:20:52.586Z,10.68
2016-03-02T10:21:39.839Z,10.67
2016-03-02T10:22:39.856Z,10.63
2016-03-02T10:23:39.844Z,10.71
2016-03-02T10:24:52.597Z,10.61
2016-03-02T10:25:40.661Z,10.57
2016-03-02T10:26:39.867Z,10.57
2016-03-02T10:27:39.854Z,10.54
2016-03-02T10:28:39.872Z,10.44
2016-03-02T10:29:39.875Z,10.34
2016-03-02T10:30:39.878Z,10.37
2016-03-02T10:31:52.600Z,10.35
2016-03-02T10:32:52.618Z,10.35
2016-03-02T10:33:39.871Z,10.33
2016-03-02T10:34:39.888Z,10.31
2016-03-02T10:35:39.876Z,10.26
2016-03-02T10:36:39.893Z,10.2
2016-03-02T10:37:52.632Z,10.05
2016-03-02T10:38:39.884Z,10.1
2016-03-02T10:39:39.902Z,10.12
2016-03-02T10:40:39.890Z,10.2
2016-03-02T10:41:52.471Z,10.1
2016-03-02T10:42:39.895Z,10.1
2016-03-02T10:43:39.913Z,10.1
2016-03-02T10:44:39.900Z,10.16
2016-03-02T10:45:39.918Z,10.12
2016-03-02T10:46:39.921Z,10.22
2016-03-02T10:47:39.923Z,10.26
2016-03-02T10:48:39.911Z,10.31
2016-03-02T10:49:39.929Z,10.34
2016-03-02T10:50:52.650Z,10.37
2016-03-02T10:51:39.934Z,10.38
2016-03-02T10:52:39.922Z,10.48
2016-03-02T10:53:39.939Z,10.28
2016-03-02T10:54:39.927Z,10.09
2016-03-02T10:55:39.930Z,10.17
2016-03-02T10:56:39.933Z,10.09
2016-03-02T10:57:39.951Z,10.1
2016-03-02T10:58:39.922Z,10.13
2016-03-02T10:59:39.925Z,10.02
2016-03-02T11:00:39.943Z,9.98
2016-03-02T11:01:39.930Z,10.04
2016-03-02T11:02:39.933Z,10.17
2016-03-02T11:03:39.951Z,10.19
2016-03-02T11:04:39.205Z,10.3
2016-03-02T11:05:39.941Z,10.31
2016-03-02T11:06:39.943Z,10.35
2016-03-02T11:07:39.947Z,10.49
2016-03-02T11:08:39.965Z,10.57
2016-03-02T11:09:39.951Z,10.54
2016-03-02T11:10:39.970Z,10.68
2016-03-02T11:11:52.691Z,10.9
2016-03-02T11:12:39.960Z,10.92
2016-03-02T11:13:39.962Z,10.93
2016-03-02T11:14:39.965Z,11.12
2016-03-02T11:15:39.984Z,11.18
2016-03-02T11:16:52.704Z,11.12
2016-03-02T11:17:39.973Z,11.14
2016-03-02T11:18:39.992Z,11.08
2016-03-02T11:19:39.995Z,11.18
2016-03-02T11:20:39.997Z,11.29
2016-03-02T11:21:52.750Z,11.43
2016-03-02T11:22:40.002Z,11.37
2016-03-02T11:23:39.989Z,11.44
2016-03-02T11:24:40.008Z,11.37
2016-03-02T11:25:39.995Z,11.37
2016-03-02T11:26:52.748Z,11.47
2016-03-02T11:27:40.000Z,11.55
2016-03-02T11:28:40.019Z,11.52
2016-03-02T11:29:40.021Z,11.59
2016-03-02T11:30:52.742Z,11.6
2016-03-02T11:31:40.027Z,11.51
2016-03-02T11:32:40.014Z,11.59
2016-03-02T11:33:40.032Z,11.59
2016-03-02T11:34:40.050Z,11.65
2016-03-02T11:35:52.772Z,11.66
2016-03-02T11:36:40.040Z,11.78
2016-03-02T11:37:40.027Z,11.66
2016-03-02T11:38:40.046Z,11.69
2016-03-02T11:39:40.049Z,11.6
2016-03-02T11:40:40.285Z,11.54
2016-03-02T11:41:46.334Z,11.47
2016-03-02T11:42:40.087Z,11.44
2016-03-02T11:43:40.074Z,11.44
2016-03-02T11:44:40.077Z,11.4
2016-03-02T11:45:40.080Z,11.37
2016-03-02T11:46:40.067Z,11.32
2016-03-02T11:47:40.070Z,11.23
2016-03-02T11:48:40.072Z,11.15
2016-03-02T11:49:52.825Z,10.96
2016-03-02T11:50:52.828Z,10.92
2016-03-02T11:51:40.080Z,10.86
2016-03-02T11:52:40.099Z,10.71
2016-03-02T11:53:40.101Z,10.74
2016-03-02T11:54:52.839Z,10.71
2016-03-02T11:55:52.825Z,10.74
2016-03-02T11:56:40.125Z,10.75
2016-03-02T11:57:40.128Z,10.76
2016-03-02T11:58:40.130Z,10.71
2016-03-02T11:59:40.117Z,10.87
2016-03-02T12:00:52.855Z,10.92
2016-03-02T12:01:40.122Z,11
2016-03-02T12:02:40.126Z,11.19
2016-03-02T12:03:40.128Z,11.1
2016-03-02T12:04:40.130Z,11.18
2016-03-02T12:05:40.129Z,11.12
2016-03-02T12:06:40.148Z,11.17
2016-03-02T12:07:40.135Z,11.18
2016-03-02T12:08:40.138Z,11.14
2016-03-02T12:09:52.890Z,11.26
2016-03-02T12:10:40.175Z,11.19
2016-03-02T12:11:40.178Z,11.17
2016-03-02T12:12:40.148Z,11.23
2016-03-02T12:13:40.151Z,11.04
2016-03-02T12:14:52.888Z,10.93
2016-03-02T12:15:40.157Z,10.79
2016-03-02T12:16:40.159Z,10.78
2016-03-02T12:17:40.178Z,10.67
2016-03-02T12:18:40.180Z,10.56
2016-03-02T12:19:40.167Z,10.42
2016-03-02T12:20:40.186Z,10.34
2016-03-02T12:21:40.173Z,10.34
2016-03-02T12:22:40.191Z,10.3
2016-03-02T12:23:40.178Z,10.26
2016-03-02T12:24:40.181Z,10.26
2016-03-02T12:25:40.183Z,10.13
2016-03-02T12:26:40.186Z,10.26
2016-03-02T12:27:52.938Z,10.31
2016-03-02T12:28:40.191Z,10.25
2016-03-02T12:29:40.194Z,10.17
2016-03-02T12:30:40.196Z,10.19
2016-03-02T12:31:52.965Z,10.2
2016-03-02T12:32:40.202Z,10.13
2016-03-02T12:33:40.205Z,10.05
2016-03-02T12:34:40.426Z,9.99
2016-03-02T12:35:40.211Z,10.07
2016-03-02T12:36:52.947Z,10.09
2016-03-02T12:37:40.419Z,9.99
2016-03-02T12:38:40.219Z,10.09
2016-03-02T12:39:40.221Z,9.99
2016-03-02T12:40:52.958Z,10.07
2016-03-02T12:41:40.211Z,10.02
2016-03-02T12:42:40.214Z,9.99
2016-03-02T12:43:40.217Z,9.89
2016-03-02T12:44:40.234Z,9.92
2016-03-02T12:45:40.237Z,9.79
2016-03-02T12:46:52.959Z,9.68
2016-03-02T12:47:40.228Z,9.65
2016-03-02T12:48:40.230Z,9.5
2016-03-02T12:49:40.248Z,9.58
2016-03-02T12:50:52.970Z,9.43
2016-03-02T12:51:40.236Z,9.16
2016-03-02T12:52:40.239Z,8.88
2016-03-02T12:53:40.241Z,8.63
2016-03-02T12:54:40.243Z,8.26
2016-03-02T12:55:40.246Z,7.97
2016-03-02T12:56:52.970Z,7.82
2016-03-02T12:57:40.252Z,7.6
2016-03-02T12:58:40.239Z,7.5
2016-03-02T12:59:40.241Z,7.35
2016-03-02T13:00:40.244Z,7.31
2016-03-02T13:01:40.231Z,7.21
2016-03-02T13:02:40.249Z,7.11
2016-03-02T13:03:40.236Z,7.1
2016-03-02T13:04:52.977Z,7.1
2016-03-02T13:05:40.227Z,6.99
2016-03-02T13:06:40.230Z,6.97
2016-03-02T13:07:40.232Z,6.97
2016-03-02T13:08:40.235Z,7
2016-03-02T13:09:39.488Z,7.05
2016-03-02T13:10:40.240Z,7.03
2016-03-02T13:11:40.227Z,7.03
2016-03-02T13:12:40.230Z,7.07
2016-03-02T13:13:52.982Z,7.1
2016-03-02T13:14:40.266Z,7.15
2016-03-02T13:15:40.223Z,7.11
2016-03-02T13:16:40.225Z,7.13